Central Nebraska Regional Airport
KGRI : now visible

Airfield :











YOU CAN JOIN US ON...

 
LOGIN :

Register | Disclaimer

   EN    FR    IT 

 









Legend :    VFR   Marginal VFR   IFR   Intensive IFR   Very Intensive IFR
Visi :
Ceiling :
>= 8 km
>= 3000ft
5 to 8 km
1000 to 3000 ft
1500m to 5 km
500 to 1000 ft
800 to 1500m
200 to 500 ft
< 800m
< 200 ft
Symbols :   Thunderstorms  Fog  Heavy snow  Heavy precipitations  Wind > 20 kt






- Airport Elevation : 1847 ft
- IATA code : GRI


KGRI - Central Nebraska Regional

CURRENT METAR :
  • 140053Z 35013KT 10SM BKN100 03/M02 A2987 RMK AO2 SLP136 T00331017

EXPIRED METARs :
  • 132353Z 33008KT 10SM OVC110 04/M01 A2985 RMK AO2 SLP128 T00391011 10078 20039 51018
  • 132253Z 32007KT 10SM OVC100 04/M01 A2984 RMK AO2 SLP123 T00391011

TAF KGRI
Valid from the 14 at 00:00 until the 15 at 00:00 UTC


132320Z 1400/1424 35009KT P6SM VCSH OVC070
FM140400 35011KT P6SM SCT015 OVC035
FM141200 01008KT P6SM BKN080
FM142200 04006KT P6SM BKN050



MET'MAP, your aeronautical weather chart ! - Copyright ORBIFLY December 2007 - Disclaimer

ORBIFLY MET'MAP TEAM :

Programming & Development : Alexandra Zaïnal
Concept & original design : Baudouin d'Aumeries
Assistance for programming : Marc-Olivier Méhu
Technical & hardware support : Manuel Goepfert

Contact : metmap@orbifly.com




SOURCES & CREDITS :

   NOAA       Earth
Advisory